sensor_id;sensor_type;location;lat;lon;timestamp;pressure;altitude;pressure_sealevel;temperature;humidity
3096;BME280;1558;42.700;23.360;2022-11-18T00:01:06;94341.63;;;8.11;100.00
3096;BME280;1558;42.700;23.360;2022-11-18T00:03:35;94308.88;;;7.93;100.00
3096;BME280;1558;42.700;23.360;2022-11-18T00:06:03;94312.69;;;7.92;100.00
3096;BME280;1558;42.700;23.360;2022-11-18T00:08:32;94328.34;;;8.02;100.00
3096;BME280;1558;42.700;23.360;2022-11-18T00:11:04;94324.63;;;8.07;100.00
3096;BME280;1558;42.700;23.360;2022-11-18T00:13:34;94299.06;;;7.85;100.00
3096;BME280;1558;42.700;23.360;2022-11-18T00:16:19;94340.09;;;7.98;100.00
3096;BME280;1558;42.700;23.360;2022-11-18T00:18:47;94332.94;;;7.90;100.00
3096;BME280;1558;42.700;23.360;2022-11-18T00:21:15;94333.16;;;7.85;100.00
3096;BME280;1558;42.700;23.360;2022-11-18T00:23:43;94327.34;;;7.83;100.00
3096;BME280;1558;42.700;23.360;2022-11-18T00:26:12;94307.47;;;7.72;100.00
3096;BME280;1558;42.700;23.360;2022-11-18T00:28:41;94334.97;;;7.81;100.00
3096;BME280;1558;42.700;23.360;2022-11-18T00:31:11;94336.63;;;7.73;100.00
3096;BME280;1558;42.700;23.360;2022-11-18T00:33:39;94328.28;;;7.50;100.00
3096;BME280;1558;42.700;23.360;2022-11-18T00:36:10;94330.28;;;7.41;100.00
3096;BME280;1558;42.700;23.360;2022-11-18T00:38:39;94293.13;;;6.95;100.00
3096;BME280;1558;42.700;23.360;2022-11-18T00:41:09;94316.06;;;7.05;100.00
3096;BME280;1558;42.700;23.360;2022-11-18T00:43:37;94325.31;;;7.07;100.00
3096;BME280;1558;42.700;23.360;2022-11-18T00:46:08;94292.66;;;6.81;100.00
3096;BME280;1558;42.700;23.360;2022-11-18T00:48:36;94303.84;;;6.83;100.00
3096;BME280;1558;42.700;23.360;2022-11-18T00:51:09;94309.44;;;6.90;100.00
3096;BME280;1558;42.700;23.360;2022-11-18T00:53:38;94313.75;;;6.82;100.00
3096;BME280;1558;42.700;23.360;2022-11-18T00:56:06;94332.56;;;6.95;100.00
3096;BME280;1558;42.700;23.360;2022-11-18T00:58:34;94334.34;;;6.91;100.00
3096;BME280;1558;42.700;23.360;2022-11-18T01:01:03;94309.28;;;6.74;100.00
3096;BME280;1558;42.700;23.360;2022-11-18T01:03:32;94323.25;;;6.68;100.00
3096;BME280;1558;42.700;23.360;2022-11-18T01:06:00;94298.38;;;6.47;100.00
3096;BME280;1558;42.700;23.360;2022-11-18T01:08:28;94323.06;;;6.52;100.00
3096;BME280;1558;42.700;23.360;2022-11-18T01:10:56;94321.81;;;6.50;100.00
3096;BME280;1558;42.700;23.360;2022-11-18T01:13:47;94307.97;;;6.48;100.00
3096;BME280;1558;42.700;23.360;2022-11-18T01:16:17;94319.72;;;6.55;100.00
3096;BME280;1558;42.700;23.360;2022-11-18T01:18:47;94266.47;;;6.21;100.00
3096;BME280;1558;42.700;23.360;2022-11-18T01:21:15;94326.53;;;6.53;100.00
3096;BME280;1558;42.700;23.360;2022-11-18T01:23:43;94332.13;;;6.60;100.00
3096;BME280;1558;42.700;23.360;2022-11-18T01:26:13;94328.06;;;6.54;100.00
3096;BME280;1558;42.700;23.360;2022-11-18T01:28:41;94327.72;;;6.43;100.00
3096;BME280;1558;42.700;23.360;2022-11-18T01:31:11;94336.66;;;6.47;100.00
3096;BME280;1558;42.700;23.360;2022-11-18T01:33:40;94337.53;;;6.39;100.00
3096;BME280;1558;42.700;23.360;2022-11-18T01:36:18;94294.19;;;6.04;100.00
3096;BME280;1558;42.700;23.360;2022-11-18T01:38:47;94338.91;;;6.25;100.00
3096;BME280;1558;42.700;23.360;2022-11-18T01:41:15;94275.13;;;5.85;100.00
3096;BME280;1558;42.700;23.360;2022-11-18T01:43:49;94319.50;;;6.28;100.00
3096;BME280;1558;42.700;23.360;2022-11-18T01:46:18;94279.75;;;6.18;100.00
3096;BME280;1558;42.700;23.360;2022-11-18T01:48:48;94326.97;;;6.55;100.00
3096;BME280;1558;42.700;23.360;2022-11-18T01:51:22;94315.56;;;6.46;100.00
3096;BME280;1558;42.700;23.360;2022-11-18T01:53:56;94331.69;;;6.58;100.00
3096;BME280;1558;42.700;23.360;2022-11-18T01:56:31;94307.56;;;6.58;100.00
3096;BME280;1558;42.700;23.360;2022-11-18T01:59:02;94317.09;;;6.67;100.00
3096;BME280;1558;42.700;23.360;2022-11-18T02:01:32;94329.59;;;6.75;100.00
3096;BME280;1558;42.700;23.360;2022-11-18T02:04:01;94298.84;;;6.61;100.00
3096;BME280;1558;42.700;23.360;2022-11-18T02:06:30;94168.09;;;5.85;100.00
3096;BME280;1558;42.700;23.360;2022-11-18T02:08:59;94322.00;;;6.77;100.00
3096;BME280;1558;42.700;23.360;2022-11-18T02:11:28;94329.84;;;6.82;100.00
3096;BME280;1558;42.700;23.360;2022-11-18T02:14:15;94314.66;;;6.74;100.00
3096;BME280;1558;42.700;23.360;2022-11-18T02:16:54;94319.91;;;6.83;100.00
3096;BME280;1558;42.700;23.360;2022-11-18T02:19:40;94287.94;;;6.66;100.00
3096;BME280;1558;42.700;23.360;2022-11-18T02:22:28;94324.19;;;6.96;100.00
3096;BME280;1558;42.700;23.360;2022-11-18T02:25:05;94307.41;;;6.75;100.00
3096;BME280;1558;42.700;23.360;2022-11-18T02:30:47;94308.97;;;6.76;100.00
3096;BME280;1558;42.700;23.360;2022-11-18T02:33:22;94329.09;;;6.94;100.00
3096;BME280;1558;42.700;23.360;2022-11-18T02:35:55;94311.66;;;6.88;100.00
3096;BME280;1558;42.700;23.360;2022-11-18T02:38:28;94325.84;;;6.89;100.00
3096;BME280;1558;42.700;23.360;2022-11-18T02:41:00;94320.16;;;6.90;100.00
3096;BME280;1558;42.700;23.360;2022-11-18T02:43:33;94313.88;;;6.74;100.00
3096;BME280;1558;42.700;23.360;2022-11-18T02:46:07;94320.03;;;6.87;100.00
3096;BME280;1558;42.700;23.360;2022-11-18T02:48:39;94326.19;;;6.99;100.00
3096;BME280;1558;42.700;23.360;2022-11-18T02:51:10;94323.75;;;7.06;100.00
3096;BME280;1558;42.700;23.360;2022-11-18T02:53:39;94324.31;;;7.12;100.00
3096;BME280;1558;42.700;23.360;2022-11-18T02:56:09;94293.28;;;6.99;100.00
3096;BME280;1558;42.700;23.360;2022-11-18T02:58:37;94320.06;;;6.99;100.00
3096;BME280;1558;42.700;23.360;2022-11-18T03:01:06;94326.41;;;6.94;100.00
3096;BME280;1558;42.700;23.360;2022-11-18T03:03:42;94331.25;;;7.01;100.00
3096;BME280;1558;42.700;23.360;2022-11-18T03:06:18;94331.34;;;7.04;100.00
3096;BME280;1558;42.700;23.360;2022-11-18T03:08:52;94321.31;;;7.01;100.00
3096;BME280;1558;42.700;23.360;2022-11-18T03:11:22;94331.59;;;7.11;100.00
3096;BME280;1558;42.700;23.360;2022-11-18T03:14:06;94340.84;;;7.14;100.00
3096;BME280;1558;42.700;23.360;2022-11-18T03:16:41;94328.88;;;6.99;100.00
3096;BME280;1558;42.700;23.360;2022-11-18T03:19:17;94324.22;;;7.08;100.00
3096;BME280;1558;42.700;23.360;2022-11-18T03:21:51;94331.94;;;7.22;100.00
3096;BME280;1558;42.700;23.360;2022-11-18T03:24:29;94327.03;;;7.24;100.00
3096;BME280;1558;42.700;23.360;2022-11-18T03:27:04;94327.03;;;7.24;100.00
3096;BME280;1558;42.700;23.360;2022-11-18T03:29:40;94322.22;;;7.17;100.00
3096;BME280;1558;42.700;23.360;2022-11-18T03:32:16;94278.16;;;6.94;100.00
3096;BME280;1558;42.700;23.360;2022-11-18T03:34:48;94315.19;;;7.25;100.00
3096;BME280;1558;42.700;23.360;2022-11-18T03:37:18;94321.00;;;7.27;100.00
3096;BME280;1558;42.700;23.360;2022-11-18T03:39:51;94318.63;;;7.25;100.00
3096;BME280;1558;42.700;23.360;2022-11-18T03:42:25;94319.78;;;7.24;100.00
3096;BME280;1558;42.700;23.360;2022-11-18T03:44:59;94329.03;;;7.27;100.00
3096;BME280;1558;42.700;23.360;2022-11-18T03:47:32;94318.19;;;7.23;100.00
3096;BME280;1558;42.700;23.360;2022-11-18T03:50:06;94267.56;;;6.98;100.00
3096;BME280;1558;42.700;23.360;2022-11-18T03:52:36;94263.88;;;7.02;100.00
3096;BME280;1558;42.700;23.360;2022-11-18T03:55:08;94311.28;;;7.22;100.00
3096;BME280;1558;42.700;23.360;2022-11-18T03:57:41;94303.53;;;7.09;100.00
3096;BME280;1558;42.700;23.360;2022-11-18T04:00:13;94244.84;;;6.59;100.00
3096;BME280;1558;42.700;23.360;2022-11-18T04:02:45;94297.81;;;6.86;100.00
3096;BME280;1558;42.700;23.360;2022-11-18T04:05:15;94307.56;;;7.03;100.00
3096;BME280;1558;42.700;23.360;2022-11-18T04:07:51;94253.75;;;6.51;100.00
3096;BME280;1558;42.700;23.360;2022-11-18T04:10:24;94292.09;;;6.75;100.00
3096;BME280;1558;42.700;23.360;2022-11-18T04:13:00;94307.19;;;6.92;100.00
3096;BME280;1558;42.700;23.360;2022-11-18T04:15:33;94308.13;;;6.96;100.00
3096;BME280;1558;42.700;23.360;2022-11-18T04:18:04;94310.00;;;6.96;100.00
3096;BME280;1558;42.700;23.360;2022-11-18T04:20:32;94309.84;;;6.80;100.00
3096;BME280;1558;42.700;23.360;2022-11-18T04:23:00;94317.69;;;6.85;100.00
3096;BME280;1558;42.700;23.360;2022-11-18T04:25:28;94322.16;;;6.81;100.00
3096;BME280;1558;42.700;23.360;2022-11-18T04:27:56;94322.34;;;6.76;100.00
3096;BME280;1558;42.700;23.360;2022-11-18T04:30:24;94315.63;;;6.58;100.00
3096;BME280;1558;42.700;23.360;2022-11-18T04:32:52;94316.72;;;6.57;100.00
3096;BME280;1558;42.700;23.360;2022-11-18T04:35:21;94313.72;;;6.58;100.00
3096;BME280;1558;42.700;23.360;2022-11-18T04:37:49;94316.59;;;6.53;100.00
3096;BME280;1558;42.700;23.360;2022-11-18T04:40:17;94334.59;;;6.65;100.00
3096;BME280;1558;42.700;23.360;2022-11-18T04:42:46;94181.94;;;5.67;100.00
3096;BME280;1558;42.700;23.360;2022-11-18T04:45:14;94342.25;;;6.54;100.00
3096;BME280;1558;42.700;23.360;2022-11-18T04:47:41;94348.31;;;6.63;100.00
3096;BME280;1558;42.700;23.360;2022-11-18T04:50:09;94347.81;;;6.70;100.00
3096;BME280;1558;42.700;23.360;2022-11-18T04:52:38;94337.53;;;6.72;100.00
3096;BME280;1558;42.700;23.360;2022-11-18T04:55:07;94333.41;;;6.74;100.00
3096;BME280;1558;42.700;23.360;2022-11-18T04:57:35;94329.03;;;6.70;100.00
3096;BME280;1558;42.700;23.360;2022-11-18T05:00:04;94335.72;;;6.64;100.00
3096;BME280;1558;42.700;23.360;2022-11-18T05:02:32;94337.75;;;6.67;100.00
3096;BME280;1558;42.700;23.360;2022-11-18T05:05:00;94332.88;;;6.81;100.00
3096;BME280;1558;42.700;23.360;2022-11-18T05:07:27;94333.31;;;6.83;100.00
3096;BME280;1558;42.700;23.360;2022-11-18T05:09:57;94339.13;;;6.85;100.00
3096;BME280;1558;42.700;23.360;2022-11-18T05:12:25;94335.78;;;6.88;100.00
3096;BME280;1558;42.700;23.360;2022-11-18T05:15:10;94325.19;;;6.92;100.00
3096;BME280;1558;42.700;23.360;2022-11-18T05:17:38;94335.38;;;6.98;100.00
3096;BME280;1558;42.700;23.360;2022-11-18T05:20:06;94333.34;;;6.95;100.00
3096;BME280;1558;42.700;23.360;2022-11-18T05:22:34;94340.72;;;6.98;100.00
3096;BME280;1558;42.700;23.360;2022-11-18T05:25:04;94318.38;;;6.94;100.00
3096;BME280;1558;42.700;23.360;2022-11-18T05:27:33;94295.66;;;6.67;100.00
3096;BME280;1558;42.700;23.360;2022-11-18T05:30:01;94344.88;;;7.08;100.00
3096;BME280;1558;42.700;23.360;2022-11-18T05:32:28;94343.00;;;7.08;100.00
3096;BME280;1558;42.700;23.360;2022-11-18T05:34:56;94310.44;;;6.86;100.00
3096;BME280;1558;42.700;23.360;2022-11-18T05:37:24;94349.81;;;7.18;100.00
3096;BME280;1558;42.700;23.360;2022-11-18T05:39:52;94327.13;;;7.15;100.00
3096;BME280;1558;42.700;23.360;2022-11-18T05:42:21;94340.44;;;7.24;100.00
3096;BME280;1558;42.700;23.360;2022-11-18T05:45:07;94275.72;;;6.89;100.00
3096;BME280;1558;42.700;23.360;2022-11-18T05:47:35;94297.03;;;6.86;100.00
3096;BME280;1558;42.700;23.360;2022-11-18T05:50:24;94330.25;;;7.05;100.00
3096;BME280;1558;42.700;23.360;2022-11-18T05:52:52;94328.78;;;7.08;100.00
3096;BME280;1558;42.700;23.360;2022-11-18T05:55:21;94330.78;;;7.11;100.00
3096;BME280;1558;42.700;23.360;2022-11-18T05:57:52;94294.03;;;6.99;100.00
3096;BME280;1558;42.700;23.360;2022-11-18T06:00:20;94341.56;;;7.35;100.00
3096;BME280;1558;42.700;23.360;2022-11-18T06:02:50;94318.28;;;7.03;100.00
3096;BME280;1558;42.700;23.360;2022-11-18T06:05:19;94295.59;;;6.88;100.00
3096;BME280;1558;42.700;23.360;2022-11-18T06:07:49;94342.13;;;7.28;100.00
3096;BME280;1558;42.700;23.360;2022-11-18T06:10:20;94339.88;;;7.42;100.00
3096;BME280;1558;42.700;23.360;2022-11-18T06:12:53;94230.81;;;6.74;100.00
3096;BME280;1558;42.700;23.360;2022-11-18T06:15:25;94292.38;;;7.07;100.00
3096;BME280;1558;42.700;23.360;2022-11-18T06:17:56;94316.16;;;7.20;100.00
3096;BME280;1558;42.700;23.360;2022-11-18T06:20:26;94333.84;;;7.33;100.00
3096;BME280;1558;42.700;23.360;2022-11-18T06:22:56;94319.09;;;7.39;100.00
3096;BME280;1558;42.700;23.360;2022-11-18T06:25:24;94347.59;;;7.56;100.00
3096;BME280;1558;42.700;23.360;2022-11-18T06:27:56;94341.69;;;7.63;100.00
3096;BME280;1558;42.700;23.360;2022-11-18T06:30:27;94270.72;;;7.24;100.00
3096;BME280;1558;42.700;23.360;2022-11-18T06:32:55;94333.63;;;7.75;100.00
3096;BME280;1558;42.700;23.360;2022-11-18T06:35:23;94253.03;;;7.23;100.00
3096;BME280;1558;42.700;23.360;2022-11-18T06:37:51;94339.75;;;7.63;100.00
3096;BME280;1558;42.700;23.360;2022-11-18T06:40:18;94311.81;;;7.52;100.00
3096;BME280;1558;42.700;23.360;2022-11-18T06:42:46;94320.44;;;7.58;100.00
3096;BME280;1558;42.700;23.360;2022-11-18T06:45:33;94309.47;;;7.75;100.00
3096;BME280;1558;42.700;23.360;2022-11-18T06:48:01;94337.84;;;7.88;100.00
3096;BME280;1558;42.700;23.360;2022-11-18T06:50:29;94302.75;;;7.69;100.00
3096;BME280;1558;42.700;23.360;2022-11-18T06:52:59;94312.59;;;7.89;100.00
3096;BME280;1558;42.700;23.360;2022-11-18T06:55:27;94336.63;;;7.97;100.00
3096;BME280;1558;42.700;23.360;2022-11-18T06:57:55;94281.31;;;7.44;100.00
3096;BME280;1558;42.700;23.360;2022-11-18T07:00:23;94288.91;;;7.42;100.00
3096;BME280;1558;42.700;23.360;2022-11-18T07:02:52;94330.59;;;7.88;100.00
3096;BME280;1558;42.700;23.360;2022-11-18T07:05:20;94337.06;;;7.87;100.00
3096;BME280;1558;42.700;23.360;2022-11-18T07:07:48;94320.97;;;7.75;100.00
3096;BME280;1558;42.700;23.360;2022-11-18T07:10:16;94342.78;;;7.98;100.00
3096;BME280;1558;42.700;23.360;2022-11-18T07:12:44;94288.09;;;7.78;100.00
3096;BME280;1558;42.700;23.360;2022-11-18T07:15:12;94306.28;;;8.09;100.00
3096;BME280;1558;42.700;23.360;2022-11-18T07:17:40;94341.38;;;8.16;100.00
3096;BME280;1558;42.700;23.360;2022-11-18T07:20:10;94320.03;;;8.07;100.00
3096;BME280;1558;42.700;23.360;2022-11-18T07:22:38;94309.50;;;8.14;100.00
3096;BME280;1558;42.700;23.360;2022-11-18T07:25:06;94301.28;;;8.35;100.00
3096;BME280;1558;42.700;23.360;2022-11-18T07:27:34;94289.19;;;8.41;100.00
3096;BME280;1558;42.700;23.360;2022-11-18T07:30:02;94311.31;;;8.50;100.00
3096;BME280;1558;42.700;23.360;2022-11-18T07:32:31;94309.63;;;8.58;100.00
3096;BME280;1558;42.700;23.360;2022-11-18T07:34:59;94258.81;;;8.13;100.00
3096;BME280;1558;42.700;23.360;2022-11-18T07:37:28;94309.34;;;8.35;100.00
3096;BME280;1558;42.700;23.360;2022-11-18T07:39:56;94271.75;;;8.23;100.00
3096;BME280;1558;42.700;23.360;2022-11-18T07:42:25;94308.56;;;8.35;100.00
3096;BME280;1558;42.700;23.360;2022-11-18T07:44:53;94279.66;;;8.44;100.00
3096;BME280;1558;42.700;23.360;2022-11-18T07:47:21;94278.88;;;8.43;100.00
3096;BME280;1558;42.700;23.360;2022-11-18T07:49:49;94297.41;;;8.60;100.00
3096;BME280;1558;42.700;23.360;2022-11-18T07:52:17;94304.28;;;8.73;100.00
3096;BME280;1558;42.700;23.360;2022-11-18T07:54:46;94298.41;;;8.83;100.00
3096;BME280;1558;42.700;23.360;2022-11-18T07:57:14;94308.47;;;8.87;100.00
3096;BME280;1558;42.700;23.360;2022-11-18T07:59:42;94290.97;;;8.37;100.00
3096;BME280;1558;42.700;23.360;2022-11-18T08:02:10;94299.28;;;8.32;100.00
3096;BME280;1558;42.700;23.360;2022-11-18T08:04:38;94294.38;;;8.34;100.00
3096;BME280;1558;42.700;23.360;2022-11-18T08:07:08;94326.50;;;8.58;100.00
3096;BME280;1558;42.700;23.360;2022-11-18T08:09:36;94343.28;;;8.67;100.00
3096;BME280;1558;42.700;23.360;2022-11-18T08:12:07;94334.09;;;8.68;100.00
3096;BME280;1558;42.700;23.360;2022-11-18T08:14:35;94347.19;;;8.70;100.00
3096;BME280;1558;42.700;23.360;2022-11-18T08:17:03;94330.03;;;8.47;100.00
3096;BME280;1558;42.700;23.360;2022-11-18T08:19:32;94341.72;;;8.66;100.00
3096;BME280;1558;42.700;23.360;2022-11-18T08:22:00;94322.41;;;8.76;100.00
3096;BME280;1558;42.700;23.360;2022-11-18T08:24:28;94319.78;;;8.80;100.00
3096;BME280;1558;42.700;23.360;2022-11-18T08:26:56;94317.28;;;8.71;100.00
3096;BME280;1558;42.700;23.360;2022-11-18T08:29:26;94305.31;;;8.69;100.00
3096;BME280;1558;42.700;23.360;2022-11-18T08:31:55;94299.50;;;8.82;100.00
3096;BME280;1558;42.700;23.360;2022-11-18T08:34:22;94292.16;;;8.95;100.00
3096;BME280;1558;42.700;23.360;2022-11-18T08:36:50;94299.63;;;9.02;100.00
3096;BME280;1558;42.700;23.360;2022-11-18T08:39:18;94307.94;;;8.97;100.00
3096;BME280;1558;42.700;23.360;2022-11-18T08:41:46;94293.75;;;9.12;100.00
3096;BME280;1558;42.700;23.360;2022-11-18T08:44:15;94246.19;;;9.16;100.00
3096;BME280;1558;42.700;23.360;2022-11-18T08:46:44;94259.97;;;9.80;100.00
3096;BME280;1558;42.700;23.360;2022-11-18T08:49:13;94264.81;;;9.90;100.00
3096;BME280;1558;42.700;23.360;2022-11-18T08:51:41;94267.47;;;10.06;100.00
3096;BME280;1558;42.700;23.360;2022-11-18T08:54:09;94265.19;;;10.08;100.00
3096;BME280;1558;42.700;23.360;2022-11-18T08:56:37;94269.75;;;9.69;100.00
3096;BME280;1558;42.700;23.360;2022-11-18T08:59:05;94225.72;;;9.62;100.00
3096;BME280;1558;42.700;23.360;2022-11-18T09:01:35;94237.16;;;9.74;100.00
3096;BME280;1558;42.700;23.360;2022-11-18T09:04:04;94230.78;;;9.82;100.00
3096;BME280;1558;42.700;23.360;2022-11-18T09:06:33;94190.44;;;9.32;100.00
3096;BME280;1558;42.700;23.360;2022-11-18T09:09:01;94208.31;;;9.40;100.00
3096;BME280;1558;42.700;23.360;2022-11-18T09:11:43;94203.28;;;9.38;100.00
3096;BME280;1558;42.700;23.360;2022-11-18T09:14:11;94211.28;;;9.35;100.00
3096;BME280;1558;42.700;23.360;2022-11-18T09:16:59;94217.97;;;9.25;100.00
3096;BME280;1558;42.700;23.360;2022-11-18T09:19:29;94226.72;;;9.22;100.00
3096;BME280;1558;42.700;23.360;2022-11-18T09:22:13;94204.50;;;9.25;100.00
3096;BME280;1558;42.700;23.360;2022-11-18T09:24:41;94211.03;;;9.09;100.00
3096;BME280;1558;42.700;23.360;2022-11-18T09:27:10;94212.78;;;9.01;100.00
3096;BME280;1558;42.700;23.360;2022-11-18T09:29:43;94195.25;;;8.92;100.00
3096;BME280;1558;42.700;23.360;2022-11-18T09:32:11;94214.25;;;8.99;100.00
3096;BME280;1558;42.700;23.360;2022-11-18T09:34:40;94208.34;;;9.09;100.00
3096;BME280;1558;42.700;23.360;2022-11-18T09:37:08;94203.75;;;9.09;100.00
3096;BME280;1558;42.700;23.360;2022-11-18T09:39:36;94200.03;;;9.14;100.00
3096;BME280;1558;42.700;23.360;2022-11-18T09:42:22;94178.75;;;9.09;100.00
3096;BME280;1558;42.700;23.360;2022-11-18T09:45:02;94191.94;;;9.14;100.00
3096;BME280;1558;42.700;23.360;2022-11-18T09:47:39;94128.44;;;8.74;100.00
3096;BME280;1558;42.700;23.360;2022-11-18T09:50:12;94156.13;;;8.94;100.00
3096;BME280;1558;42.700;23.360;2022-11-18T09:53:08;94159.19;;;8.93;100.00
3096;BME280;1558;42.700;23.360;2022-11-18T09:55:40;94161.78;;;9.05;100.00
3096;BME280;1558;42.700;23.360;2022-11-18T09:58:14;94146.84;;;9.42;100.00
3096;BME280;1558;42.700;23.360;2022-11-18T10:00:43;94149.38;;;9.70;100.00
3096;BME280;1558;42.700;23.360;2022-11-18T10:03:24;94165.03;;;9.64;100.00
3096;BME280;1558;42.700;23.360;2022-11-18T10:05:59;94139.78;;;9.91;100.00
3096;BME280;1558;42.700;23.360;2022-11-18T10:08:32;94131.19;;;10.43;100.00
3096;BME280;1558;42.700;23.360;2022-11-18T10:11:09;94136.28;;;10.71;100.00
3096;BME280;1558;42.700;23.360;2022-11-18T10:13:48;94137.94;;;10.56;100.00
3096;BME280;1558;42.700;23.360;2022-11-18T10:16:29;94096.50;;;10.91;100.00
3096;BME280;1558;42.700;23.360;2022-11-18T10:19:04;94144.19;;;11.62;100.00
3096;BME280;1558;42.700;23.360;2022-11-18T10:21:46;94152.41;;;11.69;100.00
3096;BME280;1558;42.700;23.360;2022-11-18T10:24:19;94080.28;;;12.06;100.00
3096;BME280;1558;42.700;23.360;2022-11-18T10:26:53;94110.22;;;12.27;100.00
3096;BME280;1558;42.700;23.360;2022-11-18T10:29:22;94056.47;;;12.62;100.00
3096;BME280;1558;42.700;23.360;2022-11-18T10:31:57;94107.63;;;12.78;100.00
3096;BME280;1558;42.700;23.360;2022-11-18T10:34:30;94109.56;;;12.37;100.00
3096;BME280;1558;42.700;23.360;2022-11-18T10:37:01;94102.63;;;12.80;100.00
3096;BME280;1558;42.700;23.360;2022-11-18T10:39:29;94071.81;;;12.95;100.00
3096;BME280;1558;42.700;23.360;2022-11-18T10:42:01;94079.38;;;13.23;100.00
3096;BME280;1558;42.700;23.360;2022-11-18T10:44:35;94086.22;;;13.75;100.00
3096;BME280;1558;42.700;23.360;2022-11-18T10:47:25;94079.91;;;14.57;100.00
3096;BME280;1558;42.700;23.360;2022-11-18T10:49:55;94074.09;;;15.04;100.00
3096;BME280;1558;42.700;23.360;2022-11-18T10:52:25;94064.75;;;15.16;100.00
3096;BME280;1558;42.700;23.360;2022-11-18T10:55:22;94044.22;;;14.72;100.00
3096;BME280;1558;42.700;23.360;2022-11-18T10:57:54;94059.31;;;14.38;100.00
3096;BME280;1558;42.700;23.360;2022-11-18T11:00:41;94059.75;;;14.61;100.00
3096;BME280;1558;42.700;23.360;2022-11-18T11:03:26;94069.06;;;14.85;100.00
3096;BME280;1558;42.700;23.360;2022-11-18T11:06:21;94057.78;;;15.11;100.00
3096;BME280;1558;42.700;23.360;2022-11-18T11:08:53;94046.16;;;14.65;100.00
3096;BME280;1558;42.700;23.360;2022-11-18T11:11:24;94053.06;;;14.23;100.00
3096;BME280;1558;42.700;23.360;2022-11-18T11:14:00;94048.41;;;14.20;100.00
3096;BME280;1558;42.700;23.360;2022-11-18T11:16:31;94056.94;;;14.30;100.00
3096;BME280;1558;42.700;23.360;2022-11-18T11:19:03;94036.06;;;14.51;100.00
3096;BME280;1558;42.700;23.360;2022-11-18T11:21:33;94051.97;;;14.46;100.00
3096;BME280;1558;42.700;23.360;2022-11-18T11:24:09;94046.91;;;14.41;100.00
3096;BME280;1558;42.700;23.360;2022-11-18T11:26:45;94034.47;;;14.18;100.00
3096;BME280;1558;42.700;23.360;2022-11-18T11:29:56;94023.66;;;14.43;100.00
3096;BME280;1558;42.700;23.360;2022-11-18T11:32:35;94021.75;;;14.75;100.00
3096;BME280;1558;42.700;23.360;2022-11-18T11:35:11;94018.63;;;14.91;100.00
3096;BME280;1558;42.700;23.360;2022-11-18T11:37:50;94024.41;;;15.00;100.00
3096;BME280;1558;42.700;23.360;2022-11-18T11:40:28;94017.88;;;14.73;100.00
3096;BME280;1558;42.700;23.360;2022-11-18T11:43:24;93993.44;;;14.55;100.00
3096;BME280;1558;42.700;23.360;2022-11-18T11:46:08;94015.91;;;14.63;100.00
3096;BME280;1558;42.700;23.360;2022-11-18T11:48:50;94007.78;;;14.63;100.00
3096;BME280;1558;42.700;23.360;2022-11-18T11:51:26;94026.00;;;14.59;100.00
3096;BME280;1558;42.700;23.360;2022-11-18T11:54:15;94006.59;;;14.32;100.00
3096;BME280;1558;42.700;23.360;2022-11-18T11:56:52;94008.50;;;14.24;100.00
3096;BME280;1558;42.700;23.360;2022-11-18T11:59:27;93975.53;;;13.98;100.00
3096;BME280;1558;42.700;23.360;2022-11-18T12:02:03;94005.81;;;14.32;100.00
3096;BME280;1558;42.700;23.360;2022-11-18T12:04:43;93922.44;;;13.62;100.00
3096;BME280;1558;42.700;23.360;2022-11-18T12:07:16;94002.63;;;13.87;100.00
3096;BME280;1558;42.700;23.360;2022-11-18T12:09:55;93966.22;;;13.78;100.00
3096;BME280;1558;42.700;23.360;2022-11-18T12:12:34;94014.31;;;14.09;100.00
3096;BME280;1558;42.700;23.360;2022-11-18T12:15:13;93976.69;;;14.00;100.00
3096;BME280;1558;42.700;23.360;2022-11-18T12:17:48;93998.00;;;14.05;100.00
3096;BME280;1558;42.700;23.360;2022-11-18T12:20:40;94012.75;;;14.29;100.00
3096;BME280;1558;42.700;23.360;2022-11-18T12:23:11;93986.06;;;14.35;100.00
3096;BME280;1558;42.700;23.360;2022-11-18T12:25:54;93978.69;;;14.32;100.00
3096;BME280;1558;42.700;23.360;2022-11-18T12:28:29;93976.38;;;14.30;100.00
3096;BME280;1558;42.700;23.360;2022-11-18T12:31:26;93949.25;;;14.41;100.00
3096;BME280;1558;42.700;23.360;2022-11-18T12:34:01;93965.50;;;14.55;100.00
3096;BME280;1558;42.700;23.360;2022-11-18T12:36:32;93958.91;;;14.77;100.00
3096;BME280;1558;42.700;23.360;2022-11-18T12:42:02;93936.06;;;14.64;100.00
3096;BME280;1558;42.700;23.360;2022-11-18T12:44:51;93971.72;;;14.73;100.00
3096;BME280;1558;42.700;23.360;2022-11-18T12:50:47;93947.31;;;14.59;100.00
3096;BME280;1558;42.700;23.360;2022-11-18T12:53:30;93951.19;;;14.58;100.00
3096;BME280;1558;42.700;23.360;2022-11-18T12:55:59;93949.22;;;14.65;100.00
3096;BME280;1558;42.700;23.360;2022-11-18T12:58:27;93928.31;;;14.48;100.00
3096;BME280;1558;42.700;23.360;2022-11-18T13:01:09;93853.16;;;14.06;100.00
3096;BME280;1558;42.700;23.360;2022-11-18T13:03:38;93929.84;;;14.63;100.00
3096;BME280;1558;42.700;23.360;2022-11-18T13:06:15;93939.94;;;14.66;100.00
3096;BME280;1558;42.700;23.360;2022-11-18T13:08:49;93928.28;;;14.80;100.00
3096;BME280;1558;42.700;23.360;2022-11-18T13:11:19;93913.53;;;14.74;100.00
3096;BME280;1558;42.700;23.360;2022-11-18T13:14:11;93891.84;;;14.63;100.00
3096;BME280;1558;42.700;23.360;2022-11-18T13:16:59;93879.44;;;14.62;100.00
3096;BME280;1558;42.700;23.360;2022-11-18T13:19:53;93869.22;;;15.09;100.00
3096;BME280;1558;42.700;23.360;2022-11-18T13:22:23;93885.09;;;15.17;100.00
3096;BME280;1558;42.700;23.360;2022-11-18T13:25:23;93889.91;;;15.68;100.00
3096;BME280;1558;42.700;23.360;2022-11-18T13:27:56;93855.75;;;15.64;97.57
3096;BME280;1558;42.700;23.360;2022-11-18T13:30:28;93859.19;;;16.19;92.48
3096;BME280;1558;42.700;23.360;2022-11-18T13:32:58;93874.91;;;16.04;94.70
3096;BME280;1558;42.700;23.360;2022-11-18T13:35:27;93879.34;;;15.81;100.00
3096;BME280;1558;42.700;23.360;2022-11-18T13:37:56;93848.81;;;15.55;100.00
3096;BME280;1558;42.700;23.360;2022-11-18T13:40:26;93874.47;;;15.54;100.00
3096;BME280;1558;42.700;23.360;2022-11-18T13:42:55;93828.34;;;15.33;100.00
3096;BME280;1558;42.700;23.360;2022-11-18T13:45:25;93859.03;;;15.30;100.00